PWSweather.com
Personal Weather Stations
Station Observations
KCACOARS9
Yosemite Lakes Park, Coarsegold, CA 93614

Yosemite Lakes ParkCoarsegold, CA 93614

Lat: 37.180241, Lon: -119.765989

Elevation: 1266

Station Type: Davis Vantage Vue

http://www.weathervise.com

High Low Average
Temperature 52.1°F11.2°C 33.9°F1.1°C 43.4°F6.3°C
Dew Point 40.6°F4.8°C 31.6°F-0.2°C 36.5°F2.5°C
Winds 14.0 mph 22.5 kmh Calm Calm 3.0 mph SSW4.8 kmh SSW
Wind Gusts 15.0 mph24.1 kmh -- 5.0 mph8.0 kmh
Humidity 93% 60% 78%
Pressure 30.11 in1019.6 mb 29.97 in1014.9 mb -
Precipitation 0.00 in0.0 mm - -
Hour Temp Dew Point Humidity Winds Wind Gusts Pressure Precip Precip Rate Daily Precip Total
12:00 AM 36.4°F2.4°C 33.8°F1.0°C 90% Calm Calm -- 30.10 in1019.3 mb 0.00 in0.0 mm 0.00 in0.0 mm 0.00 in0.0 mm
12:05 AM 36.3°F2.4°C 33.7°F0.9°C 90% Calm Calm -- 30.10 in1019.3 mb 0.00 in0.0 mm 0.00 in0.0 mm 0.00 in0.0 mm
12:10 AM 36.2°F2.3°C 33.6°F0.9°C 90% Calm Calm -- 30.10 in1019.3 mb 0.00 in0.0 mm 0.00 in0.0 mm 0.00 in0.0 mm
12:15 AM 36.2°F2.3°C 33.6°F0.9°C 90% Calm Calm -- 30.10 in1019.3 mb 0.00 in0.0 mm 0.00 in0.0 mm 0.00 in0.0 mm
12:20 AM 36.1°F2.3°C 33.2°F0.7°C 89% Calm Calm -- 30.10 in1019.3 mb 0.00 in0.0 mm 0.00 in0.0 mm 0.00 in0.0 mm
12:25 AM 36.0°F2.2°C 33.1°F0.6°C 89% Calm Calm -- 30.10 in1019.3 mb 0.00 in0.0 mm 0.00 in0.0 mm 0.00 in0.0 mm
12:30 AM 35.9°F2.2°C 33.3°F0.7°C 90% Calm Calm -- 30.09 in1019.0 mb 0.00 in0.0 mm 0.00 in0.0 mm 0.00 in0.0 mm
12:35 AM 35.9°F2.2°C 33.3°F0.7°C 90% Calm Calm -- 30.10 in1019.3 mb 0.00 in0.0 mm 0.00 in0.0 mm 0.00 in0.0 mm
12:40 AM 35.8°F2.1°C 33.2°F0.7°C 90% Calm Calm -- 30.10 in1019.3 mb 0.00 in0.0 mm 0.00 in0.0 mm 0.00 in0.0 mm
12:45 AM 35.7°F2.1°C 33.1°F0.6°C 90% Calm Calm -- 30.10 in1019.3 mb 0.00 in0.0 mm 0.00 in0.0 mm 0.00 in0.0 mm
12:50 AM 35.6°F2.0°C 33.0°F0.6°C 90% Calm Calm -- 30.10 in1019.3 mb 0.00 in0.0 mm 0.00 in0.0 mm 0.00 in0.0 mm
01:00 AM 35.1°F1.7°C 32.5°F0.3°C 90% Calm Calm -- 30.09 in1019.0 mb 0.00 in0.0 mm 0.00 in0.0 mm 0.00 in0.0 mm
01:05 AM 34.9°F1.6°C 32.5°F0.3°C 91% Calm Calm -- 30.09 in1019.0 mb 0.00 in0.0 mm 0.00 in0.0 mm 0.00 in0.0 mm
01:10 AM 34.8°F1.6°C 32.5°F0.3°C 91% Calm Calm -- 30.10 in1019.3 mb 0.00 in0.0 mm 0.00 in0.0 mm 0.00 in0.0 mm
01:15 AM 34.5°F1.4°C 32.2°F0.1°C 91% Calm Calm -- 30.09 in1019.0 mb 0.00 in0.0 mm 0.00 in0.0 mm 0.00 in0.0 mm
01:20 AM 34.4°F1.3°C 32.3°F0.2°C 92% Calm Calm -- 30.09 in1019.0 mb 0.00 in0.0 mm 0.00 in0.0 mm 0.00 in0.0 mm
01:25 AM 34.4°F1.3°C 32.3°F0.2°C 92% Calm Calm -- 30.09 in1019.0 mb 0.00 in0.0 mm 0.00 in0.0 mm 0.00 in0.0 mm
01:30 AM 34.3°F1.3°C 32.2°F0.1°C 92% Calm Calm -- 30.09 in1019.0 mb 0.00 in0.0 mm 0.00 in0.0 mm 0.00 in0.0 mm
01:35 AM 34.2°F1.2°C 32.1°F0.1°C 92% Calm Calm -- 30.09 in1019.0 mb 0.00 in0.0 mm 0.00 in0.0 mm 0.00 in0.0 mm
01:40 AM 34.3°F1.3°C 32.5°F0.3°C 93% Calm Calm -- 30.09 in1019.0 mb 0.00 in0.0 mm 0.00 in0.0 mm 0.00 in0.0 mm
01:45 AM 34.4°F1.3°C 32.6°F0.3°C 93% Calm Calm -- 30.09 in1019.0 mb 0.00 in0.0 mm 0.00 in0.0 mm 0.00 in0.0 mm
01:50 AM 34.5°F1.4°C 32.4°F0.2°C 92% Calm Calm -- 30.09 in1019.0 mb 0.00 in0.0 mm 0.00 in0.0 mm 0.00 in0.0 mm
01:55 AM 34.4°F1.3°C 32.3°F0.2°C 92% Calm Calm -- 30.09 in1019.0 mb 0.00 in0.0 mm 0.00 in0.0 mm 0.00 in0.0 mm
02:00 AM 34.4°F1.3°C 32.3°F0.2°C 92% Calm Calm -- 30.09 in1019.0 mb 0.00 in0.0 mm 0.00 in0.0 mm 0.00 in0.0 mm
02:05 AM 34.4°F1.3°C 32.3°F0.2°C 92% Calm Calm -- 30.09 in1019.0 mb 0.00 in0.0 mm 0.00 in0.0 mm 0.00 in0.0 mm
02:10 AM 34.4°F1.3°C 32.3°F0.2°C 92% Calm Calm -- 30.08 in1018.6 mb 0.00 in0.0 mm 0.00 in0.0 mm 0.00 in0.0 mm
02:15 AM 34.4°F1.3°C 32.3°F0.2°C 92% Calm Calm -- 30.09 in1019.0 mb 0.00 in0.0 mm 0.00 in0.0 mm 0.00 in0.0 mm
02:20 AM 34.4°F1.3°C 32.3°F0.2°C 92% Calm Calm -- 30.09 in1019.0 mb 0.00 in0.0 mm 0.00 in0.0 mm 0.00 in0.0 mm
02:25 AM 34.2°F1.2°C 32.1°F0.1°C 92% Calm Calm -- 30.10 in1019.3 mb 0.00 in0.0 mm 0.00 in0.0 mm 0.00 in0.0 mm
02:30 AM 34.0°F1.1°C 31.9°F-0.1°C 92% Calm Calm -- 30.10 in1019.3 mb 0.00 in0.0 mm 0.00 in0.0 mm 0.00 in0.0 mm
02:35 AM 34.0°F1.1°C 32.2°F0.1°C 93% Calm Calm -- 30.10 in1019.3 mb 0.00 in0.0 mm 0.00 in0.0 mm 0.00 in0.0 mm
02:40 AM 34.3°F1.3°C 32.5°F0.3°C 93% Calm Calm -- 30.10 in1019.3 mb 0.00 in0.0 mm 0.00 in0.0 mm 0.00 in0.0 mm
02:45 AM 34.5°F1.4°C 32.4°F0.2°C 92% Calm Calm -- 30.10 in1019.3 mb 0.00 in0.0 mm 0.00 in0.0 mm 0.00 in0.0 mm
02:50 AM 34.5°F1.4°C 32.2°F0.1°C 91% Calm Calm -- 30.10 in1019.3 mb 0.00 in0.0 mm 0.00 in0.0 mm 0.00 in0.0 mm
02:55 AM 34.4°F1.3°C 32.1°F0.1°C 91% Calm Calm -- 30.10 in1019.3 mb 0.00 in0.0 mm 0.00 in0.0 mm 0.00 in0.0 mm
03:00 AM 34.4°F1.3°C 32.1°F0.1°C 91% Calm Calm -- 30.10 in1019.3 mb 0.00 in0.0 mm 0.00 in0.0 mm 0.00 in0.0 mm
03:05 AM 34.1°F1.2°C 31.8°F-0.1°C 91% Calm Calm -- 30.11 in1019.6 mb 0.00 in0.0 mm 0.00 in0.0 mm 0.00 in0.0 mm
03:10 AM 33.9°F1.1°C 31.6°F-0.2°C 91% Calm Calm -- 30.10 in1019.3 mb 0.00 in0.0 mm 0.00 in0.0 mm 0.00 in0.0 mm
03:15 AM 33.9°F1.1°C 31.8°F-0.1°C 92% Calm Calm -- 30.10 in1019.3 mb 0.00 in0.0 mm 0.00 in0.0 mm 0.00 in0.0 mm
03:20 AM 34.0°F1.1°C 31.9°F-0.1°C 92% Calm Calm -- 30.10 in1019.3 mb 0.00 in0.0 mm 0.00 in0.0 mm 0.00 in0.0 mm
03:25 AM 34.2°F1.2°C 32.1°F0.1°C 92% Calm Calm -- 30.10 in1019.3 mb 0.00 in0.0 mm 0.00 in0.0 mm 0.00 in0.0 mm
03:30 AM 34.5°F1.4°C 32.4°F0.2°C 92% Calm Calm -- 30.09 in1019.0 mb 0.00 in0.0 mm 0.00 in0.0 mm 0.00 in0.0 mm
03:35 AM 34.7°F1.5°C 32.6°F0.3°C 92% Calm Calm -- 30.09 in1019.0 mb 0.00 in0.0 mm 0.00 in0.0 mm 0.00 in0.0 mm
03:40 AM 35.0°F1.7°C 32.6°F0.3°C 91% Calm Calm -- 30.09 in1019.0 mb 0.00 in0.0 mm 0.00 in0.0 mm 0.00 in0.0 mm
03:45 AM 35.3°F1.8°C 32.7°F0.4°C 90% Calm Calm -- 30.09 in1019.0 mb 0.00 in0.0 mm 0.00 in0.0 mm 0.00 in0.0 mm
03:50 AM 35.5°F1.9°C 32.9°F0.5°C 90% Calm Calm -- 30.09 in1019.0 mb 0.00 in0.0 mm 0.00 in0.0 mm 0.00 in0.0 mm
03:55 AM 35.6°F2.0°C 32.7°F0.4°C 89% Calm Calm -- 30.09 in1019.0 mb 0.00 in0.0 mm 0.00 in0.0 mm 0.00 in0.0 mm
04:00 AM 35.7°F2.1°C 32.8°F0.4°C 89% Calm Calm -- 30.09 in1019.0 mb 0.00 in0.0 mm 0.00 in0.0 mm 0.00 in0.0 mm
04:05 AM 35.5°F1.9°C 32.6°F0.3°C 89% Calm Calm -- 30.09 in1019.0 mb 0.00 in0.0 mm 0.00 in0.0 mm 0.00 in0.0 mm
04:10 AM 35.3°F1.8°C 32.4°F0.2°C 89% Calm Calm -- 30.09 in1019.0 mb 0.00 in0.0 mm 0.00 in0.0 mm 0.00 in0.0 mm
04:15 AM 35.2°F1.8°C 32.6°F0.3°C 90% Calm Calm -- 30.09 in1019.0 mb 0.00 in0.0 mm 0.00 in0.0 mm 0.00 in0.0 mm
04:20 AM 35.0°F1.7°C 32.4°F0.2°C 90% Calm Calm -- 30.10 in1019.3 mb 0.00 in0.0 mm 0.00 in0.0 mm 0.00 in0.0 mm
04:25 AM 35.0°F1.7°C 32.4°F0.2°C 90% Calm Calm -- 30.09 in1019.0 mb 0.00 in0.0 mm 0.00 in0.0 mm 0.00 in0.0 mm
04:30 AM 35.2°F1.8°C 32.6°F0.3°C 90% Calm Calm -- 30.09 in1019.0 mb 0.00 in0.0 mm 0.00 in0.0 mm 0.00 in0.0 mm
04:35 AM 35.3°F1.8°C 32.7°F0.4°C 90% Calm Calm -- 30.09 in1019.0 mb 0.00 in0.0 mm 0.00 in0.0 mm 0.00 in0.0 mm
04:40 AM 35.4°F1.9°C 32.8°F0.4°C 90% Calm Calm -- 30.09 in1019.0 mb 0.00 in0.0 mm 0.00 in0.0 mm 0.00 in0.0 mm
04:45 AM 35.4°F1.9°C 32.8°F0.4°C 90% Calm Calm -- 30.09 in1019.0 mb 0.00 in0.0 mm 0.00 in0.0 mm 0.00 in0.0 mm
04:50 AM 35.4°F1.9°C 32.8°F0.4°C 90% Calm Calm -- 30.09 in1019.0 mb 0.00 in0.0 mm 0.00 in0.0 mm 0.00 in0.0 mm
04:55 AM 35.4°F1.9°C 32.8°F0.4°C 90% Calm Calm -- 30.09 in1019.0 mb 0.00 in0.0 mm 0.00 in0.0 mm 0.00 in0.0 mm
05:00 AM 35.4°F1.9°C 32.8°F0.4°C 90% Calm Calm -- 30.09 in1019.0 mb 0.00 in0.0 mm 0.00 in0.0 mm 0.00 in0.0 mm
05:05 AM 35.4°F1.9°C 33.0°F0.6°C 91% Calm Calm -- 30.09 in1019.0 mb 0.00 in0.0 mm 0.00 in0.0 mm 0.00 in0.0 mm
05:10 AM 35.6°F2.0°C 33.0°F0.6°C 90% Calm Calm -- 30.09 in1019.0 mb 0.00 in0.0 mm 0.00 in0.0 mm 0.00 in0.0 mm
05:15 AM 35.8°F2.1°C 33.2°F0.7°C 90% Calm Calm -- 30.09 in1019.0 mb 0.00 in0.0 mm 0.00 in0.0 mm 0.00 in0.0 mm
05:20 AM 36.0°F2.2°C 33.4°F0.8°C 90% Calm Calm -- 30.08 in1018.6 mb 0.00 in0.0 mm 0.00 in0.0 mm 0.00 in0.0 mm
05:25 AM 36.0°F2.2°C 33.1°F0.6°C 89% Calm Calm -- 30.08 in1018.6 mb 0.00 in0.0 mm 0.00 in0.0 mm 0.00 in0.0 mm
05:30 AM 36.0°F2.2°C 33.1°F0.6°C 89% Calm Calm -- 30.09 in1019.0 mb 0.00 in0.0 mm 0.00 in0.0 mm 0.00 in0.0 mm
05:35 AM 35.9°F2.2°C 33.0°F0.6°C 89% Calm Calm -- 30.08 in1018.6 mb 0.00 in0.0 mm 0.00 in0.0 mm 0.00 in0.0 mm
05:40 AM 35.8°F2.1°C 33.2°F0.7°C 90% Calm Calm -- 30.08 in1018.6 mb 0.00 in0.0 mm 0.00 in0.0 mm 0.00 in0.0 mm
05:45 AM 35.7°F2.1°C 33.1°F0.6°C 90% Calm Calm -- 30.09 in1019.0 mb 0.00 in0.0 mm 0.00 in0.0 mm 0.00 in0.0 mm
05:50 AM 35.5°F1.9°C 32.9°F0.5°C 90% Calm Calm -- 30.09 in1019.0 mb 0.00 in0.0 mm 0.00 in0.0 mm 0.00 in0.0 mm
05:55 AM 35.5°F1.9°C 33.1°F0.6°C 91% Calm Calm -- 30.09 in1019.0 mb 0.00 in0.0 mm 0.00 in0.0 mm 0.00 in0.0 mm
06:00 AM 35.5°F1.9°C 33.1°F0.6°C 91% Calm Calm -- 30.09 in1019.0 mb 0.00 in0.0 mm 0.00 in0.0 mm 0.00 in0.0 mm
06:05 AM 35.5°F1.9°C 33.1°F0.6°C 91% Calm Calm -- 30.08 in1018.6 mb 0.00 in0.0 mm 0.00 in0.0 mm 0.00 in0.0 mm
06:10 AM 35.4°F1.9°C 33.3°F0.7°C 92% Calm Calm -- 30.08 in1018.6 mb 0.00 in0.0 mm 0.00 in0.0 mm 0.00 in0.0 mm
06:15 AM 35.4°F1.9°C 33.3°F0.7°C 92% Calm Calm -- 30.08 in1018.6 mb 0.00 in0.0 mm 0.00 in0.0 mm 0.00 in0.0 mm
06:20 AM 35.2°F1.8°C 33.1°F0.6°C 92% Calm Calm -- 30.08 in1018.6 mb 0.00 in0.0 mm 0.00 in0.0 mm 0.00 in0.0 mm
06:25 AM 35.1°F1.7°C 33.0°F0.6°C 92% Calm Calm -- 30.08 in1018.6 mb 0.00 in0.0 mm 0.00 in0.0 mm 0.00 in0.0 mm
06:30 AM 34.9°F1.6°C 32.8°F0.4°C 92% Calm Calm -- 30.08 in1018.6 mb 0.00 in0.0 mm 0.00 in0.0 mm 0.00 in0.0 mm
06:35 AM 34.8°F1.6°C 32.7°F0.4°C 92% Calm Calm -- 30.08 in1018.6 mb 0.00 in0.0 mm 0.00 in0.0 mm 0.00 in0.0 mm
06:40 AM 34.8°F1.6°C 33.0°F0.6°C 93% Calm Calm -- 30.08 in1018.6 mb 0.00 in0.0 mm 0.00 in0.0 mm 0.00 in0.0 mm
06:45 AM 34.7°F1.5°C 32.6°F0.3°C 92% Calm Calm -- 30.08 in1018.6 mb 0.00 in0.0 mm 0.00 in0.0 mm 0.00 in0.0 mm
06:50 AM 34.5°F1.4°C 32.7°F0.4°C 93% Calm Calm -- 30.08 in1018.6 mb 0.00 in0.0 mm 0.00 in0.0 mm 0.00 in0.0 mm
06:55 AM 34.4°F1.3°C 32.6°F0.3°C 93% Calm Calm -- 30.08 in1018.6 mb 0.00 in0.0 mm 0.00 in0.0 mm 0.00 in0.0 mm
07:00 AM 34.1°F1.2°C 32.0°F0.0°C 92% Calm Calm -- 30.08 in1018.6 mb 0.00 in0.0 mm 0.00 in0.0 mm 0.00 in0.0 mm
07:05 AM 34.0°F1.1°C 32.2°F0.1°C 93% Calm Calm -- 30.08 in1018.6 mb 0.00 in0.0 mm 0.00 in0.0 mm 0.00 in0.0 mm
07:10 AM 34.1°F1.2°C 32.3°F0.2°C 93% Calm Calm -- 30.09 in1019.0 mb 0.00 in0.0 mm 0.00 in0.0 mm 0.00 in0.0 mm
07:15 AM 34.2°F1.2°C 32.4°F0.2°C 93% Calm Calm -- 30.09 in1019.0 mb 0.00 in0.0 mm 0.00 in0.0 mm 0.00 in0.0 mm
07:20 AM 34.4°F1.3°C 32.6°F0.3°C 93% Calm Calm -- 30.09 in1019.0 mb 0.00 in0.0 mm 0.00 in0.0 mm 0.00 in0.0 mm
07:25 AM 34.3°F1.3°C 32.2°F0.1°C 92% Calm Calm -- 30.09 in1019.0 mb 0.00 in0.0 mm 0.00 in0.0 mm 0.00 in0.0 mm
07:30 AM 34.2°F1.2°C 32.1°F0.1°C 92% Calm Calm -- 30.08 in1018.6 mb 0.00 in0.0 mm 0.00 in0.0 mm 0.00 in0.0 mm
07:35 AM 34.0°F1.1°C 31.9°F-0.1°C 92% Calm Calm -- 30.09 in1019.0 mb 0.00 in0.0 mm 0.00 in0.0 mm 0.00 in0.0 mm
07:40 AM 34.0°F1.1°C 32.2°F0.1°C 93% Calm Calm -- 30.09 in1019.0 mb 0.00 in0.0 mm 0.00 in0.0 mm 0.00 in0.0 mm
07:45 AM 34.0°F1.1°C 32.2°F0.1°C 93% Calm Calm -- 30.08 in1018.6 mb 0.00 in0.0 mm 0.00 in0.0 mm 0.00 in0.0 mm
07:50 AM 34.0°F1.1°C 32.2°F0.1°C 93% Calm Calm -- 30.08 in1018.6 mb 0.00 in0.0 mm 0.00 in0.0 mm 0.00 in0.0 mm
07:55 AM 34.0°F1.1°C 32.2°F0.1°C 93% Calm Calm -- 30.09 in1019.0 mb 0.00 in0.0 mm 0.00 in0.0 mm 0.00 in0.0 mm
08:00 AM 34.3°F1.3°C 32.5°F0.3°C 93% Calm Calm -- 30.09 in1019.0 mb 0.00 in0.0 mm 0.00 in0.0 mm 0.00 in0.0 mm
08:05 AM 34.7°F1.5°C 32.9°F0.5°C 93% Calm Calm -- 30.09 in1019.0 mb 0.00 in0.0 mm 0.00 in0.0 mm 0.00 in0.0 mm
08:10 AM 34.9°F1.6°C 33.1°F0.6°C 93% Calm Calm -- 30.08 in1018.6 mb 0.00 in0.0 mm 0.00 in0.0 mm 0.00 in0.0 mm
08:15 AM 35.1°F1.7°C 33.3°F0.7°C 93% Calm Calm -- 30.08 in1018.6 mb 0.00 in0.0 mm 0.00 in0.0 mm 0.00 in0.0 mm
08:20 AM 35.6°F2.0°C 33.5°F0.8°C 92% Calm Calm -- 30.08 in1018.6 mb 0.00 in0.0 mm 0.00 in0.0 mm 0.00 in0.0 mm
08:25 AM 35.9°F2.2°C 33.8°F1.0°C 92% Calm Calm -- 30.09 in1019.0 mb 0.00 in0.0 mm 0.00 in0.0 mm 0.00 in0.0 mm
08:30 AM 36.1°F2.3°C 33.7°F0.9°C 91% Calm Calm -- 30.08 in1018.6 mb 0.00 in0.0 mm 0.00 in0.0 mm 0.00 in0.0 mm
08:35 AM 36.8°F2.7°C 34.2°F1.2°C 90% Calm Calm -- 30.08 in1018.6 mb 0.00 in0.0 mm 0.00 in0.0 mm 0.00 in0.0 mm
08:40 AM 37.9°F3.3°C 35.5°F1.9°C 91% Calm Calm -- 30.09 in1019.0 mb 0.00 in0.0 mm 0.00 in0.0 mm 0.00 in0.0 mm
08:45 AM 38.9°F3.8°C 36.2°F2.3°C 90% Calm Calm -- 30.08 in1018.6 mb 0.00 in0.0 mm 0.00 in0.0 mm 0.00 in0.0 mm
08:50 AM 39.9°F4.4°C 36.6°F2.6°C 88% Calm Calm -- 30.08 in1018.6 mb 0.00 in0.0 mm 0.00 in0.0 mm 0.00 in0.0 mm
08:55 AM 40.2°F4.6°C 36.1°F2.3°C 85% Calm Calm -- 30.08 in1018.6 mb 0.00 in0.0 mm 0.00 in0.0 mm 0.00 in0.0 mm
09:00 AM 40.8°F4.9°C 36.4°F2.4°C 84% Calm Calm -- 30.08 in1018.6 mb 0.00 in0.0 mm 0.00 in0.0 mm 0.00 in0.0 mm
09:05 AM 41.7°F5.4°C 36.3°F2.4°C 81% Calm Calm -- 30.08 in1018.6 mb 0.00 in0.0 mm 0.00 in0.0 mm 0.00 in0.0 mm
09:10 AM 42.3°F5.7°C 36.9°F2.7°C 81% Calm Calm -- 30.08 in1018.6 mb 0.00 in0.0 mm 0.00 in0.0 mm 0.00 in0.0 mm
09:15 AM 42.8°F6.0°C 37.1°F2.8°C 80% 1.0 mph SE1.6 kmh SE 4.0 mph6.4 kmh 30.08 in1018.6 mb 0.00 in0.0 mm 0.00 in0.0 mm 0.00 in0.0 mm
09:20 AM 43.5°F6.4°C 37.1°F2.8°C 78% 1.0 mph SE1.6 kmh SE 2.0 mph3.2 kmh 30.08 in1018.6 mb 0.00 in0.0 mm 0.00 in0.0 mm 0.00 in0.0 mm
09:25 AM 44.1°F6.7°C 37.7°F3.2°C 78% 1.0 mph SE1.6 kmh SE 2.0 mph3.2 kmh 30.08 in1018.6 mb 0.00 in0.0 mm 0.00 in0.0 mm 0.00 in0.0 mm
09:30 AM 44.8°F7.1°C 37.4°F3.0°C 75% 2.0 mph ESE3.2 kmh ESE 3.0 mph4.8 kmh 30.08 in1018.6 mb 0.00 in0.0 mm 0.00 in0.0 mm 0.00 in0.0 mm
09:35 AM 45.5°F7.5°C 35.9°F2.2°C 69% 3.0 mph SE4.8 kmh SE 7.0 mph11.3 kmh 30.08 in1018.6 mb 0.00 in0.0 mm 0.00 in0.0 mm 0.00 in0.0 mm
09:40 AM 45.9°F7.7°C 34.0°F1.1°C 63% 4.0 mph ESE6.4 kmh ESE 7.0 mph11.3 kmh 30.08 in1018.6 mb 0.00 in0.0 mm 0.00 in0.0 mm 0.00 in0.0 mm
09:45 AM 46.3°F7.9°C 34.4°F1.3°C 63% 5.0 mph ESE8.0 kmh ESE 8.0 mph12.9 kmh 30.08 in1018.6 mb 0.00 in0.0 mm 0.00 in0.0 mm 0.00 in0.0 mm
09:50 AM 46.5°F8.1°C 33.8°F1.0°C 61% 4.0 mph SE6.4 kmh SE 10.0 mph16.1 kmh 30.08 in1018.6 mb 0.00 in0.0 mm 0.00 in0.0 mm 0.00 in0.0 mm
09:55 AM 46.8°F8.2°C 34.9°F1.6°C 63% 11.0 mph ESE17.7 kmh ESE 11.0 mph17.7 kmh 30.08 in1018.6 mb 0.00 in0.0 mm 0.00 in0.0 mm 0.00 in0.0 mm
10:00 AM 46.9°F8.3°C 33.8°F1.0°C 60% 5.0 mph E8.0 kmh E 12.0 mph19.3 kmh 30.08 in1018.6 mb 0.00 in0.0 mm 0.00 in0.0 mm 0.00 in0.0 mm
10:05 AM 47.3°F8.5°C 35.0°F1.7°C 62% 4.0 mph ESE6.4 kmh ESE 10.0 mph16.1 kmh 30.08 in1018.6 mb 0.00 in0.0 mm 0.00 in0.0 mm 0.00 in0.0 mm
10:10 AM 47.6°F8.7°C 35.6°F2.0°C 63% 5.0 mph SE8.0 kmh SE 9.0 mph14.5 kmh 30.08 in1018.6 mb 0.00 in0.0 mm 0.00 in0.0 mm 0.00 in0.0 mm
10:15 AM 47.9°F8.8°C 35.5°F1.9°C 62% 6.0 mph SE9.7 kmh SE 11.0 mph17.7 kmh 30.08 in1018.6 mb 0.00 in0.0 mm 0.00 in0.0 mm 0.00 in0.0 mm
10:20 AM 47.9°F8.8°C 36.3°F2.4°C 64% 4.0 mph SE6.4 kmh SE 12.0 mph19.3 kmh 30.08 in1018.6 mb 0.00 in0.0 mm 0.00 in0.0 mm 0.00 in0.0 mm
10:25 AM 48.1°F8.9°C 35.7°F2.1°C 62% 8.0 mph SE12.9 kmh SE 9.0 mph14.5 kmh 30.08 in1018.6 mb 0.00 in0.0 mm 0.00 in0.0 mm 0.00 in0.0 mm
10:30 AM 48.2°F9.0°C 35.8°F2.1°C 62% 8.0 mph SE12.9 kmh SE 10.0 mph16.1 kmh 30.08 in1018.6 mb 0.00 in0.0 mm 0.00 in0.0 mm 0.00 in0.0 mm
10:40 AM 48.3°F9.1°C 35.5°F1.9°C 61% 4.0 mph SE6.4 kmh SE 9.0 mph14.5 kmh 30.08 in1018.6 mb 0.00 in0.0 mm 0.00 in0.0 mm 0.00 in0.0 mm
10:45 AM 49.1°F9.5°C 37.1°F2.8°C 63% 8.0 mph SSE12.9 kmh SSE 9.0 mph14.5 kmh 30.08 in1018.6 mb 0.00 in0.0 mm 0.00 in0.0 mm 0.00 in0.0 mm
10:50 AM 49.0°F9.4°C 36.2°F2.3°C 61% 7.0 mph SE11.3 kmh SE 9.0 mph14.5 kmh 30.08 in1018.6 mb 0.00 in0.0 mm 0.00 in0.0 mm 0.00 in0.0 mm
10:55 AM 48.7°F9.3°C 36.7°F2.6°C 63% 5.0 mph SE8.0 kmh SE 10.0 mph16.1 kmh 30.08 in1018.6 mb 0.00 in0.0 mm 0.00 in0.0 mm 0.00 in0.0 mm
11:00 AM 49.5°F9.7°C 37.0°F2.8°C 62% 7.0 mph ESE11.3 kmh ESE 9.0 mph14.5 kmh 30.08 in1018.6 mb 0.00 in0.0 mm 0.00 in0.0 mm 0.00 in0.0 mm
11:05 AM 49.8°F9.9°C 38.1°F3.4°C 64% 7.0 mph SE11.3 kmh SE 12.0 mph19.3 kmh 30.08 in1018.6 mb 0.00 in0.0 mm 0.00 in0.0 mm 0.00 in0.0 mm
11:10 AM 50.3°F10.2°C 37.4°F3.0°C 61% 8.0 mph S12.9 kmh S 12.0 mph19.3 kmh 30.08 in1018.6 mb 0.00 in0.0 mm 0.00 in0.0 mm 0.00 in0.0 mm
11:15 AM 50.4°F10.2°C 37.5°F3.1°C 61% 4.0 mph SE6.4 kmh SE 9.0 mph14.5 kmh 30.07 in1018.3 mb 0.00 in0.0 mm 0.00 in0.0 mm 0.00 in0.0 mm
11:20 AM 50.6°F10.3°C 38.9°F3.8°C 64% 5.0 mph SSW8.0 kmh SSW 10.0 mph16.1 kmh 30.07 in1018.3 mb 0.00 in0.0 mm 0.00 in0.0 mm 0.00 in0.0 mm
11:25 AM 50.9°F10.5°C 38.0°F3.3°C 61% 12.0 mph SE19.3 kmh SE 12.0 mph19.3 kmh 30.07 in1018.3 mb 0.00 in0.0 mm 0.00 in0.0 mm 0.00 in0.0 mm
11:30 AM 50.3°F10.2°C 38.2°F3.4°C 63% 11.0 mph SSE17.7 kmh SSE 15.0 mph24.1 kmh 30.07 in1018.3 mb 0.00 in0.0 mm 0.00 in0.0 mm 0.00 in0.0 mm
11:35 AM 50.7°F10.4°C 39.0°F3.9°C 64% 7.0 mph ESE11.3 kmh ESE 11.0 mph17.7 kmh 30.07 in1018.3 mb 0.00 in0.0 mm 0.00 in0.0 mm 0.00 in0.0 mm
11:40 AM 50.5°F10.3°C 38.8°F3.8°C 64% 8.0 mph E12.9 kmh E 9.0 mph14.5 kmh 30.07 in1018.3 mb 0.00 in0.0 mm 0.00 in0.0 mm 0.00 in0.0 mm
11:45 AM 50.5°F10.3°C 40.0°F4.4°C 67% 14.0 mph E22.5 kmh E 14.0 mph22.5 kmh 30.07 in1018.3 mb 0.00 in0.0 mm 0.00 in0.0 mm 0.00 in0.0 mm
11:50 AM 50.6°F10.3°C 39.7°F4.3°C 66% 10.0 mph S16.1 kmh S 13.0 mph20.9 kmh 30.07 in1018.3 mb 0.00 in0.0 mm 0.00 in0.0 mm 0.00 in0.0 mm
11:55 AM 50.5°F10.3°C 38.8°F3.8°C 64% 9.0 mph SE14.5 kmh SE 13.0 mph20.9 kmh 30.07 in1018.3 mb 0.00 in0.0 mm 0.00 in0.0 mm 0.00 in0.0 mm
12:00 PM 50.2°F10.1°C 38.1°F3.4°C 63% 10.0 mph ESE16.1 kmh ESE 14.0 mph22.5 kmh 30.07 in1018.3 mb 0.00 in0.0 mm 0.00 in0.0 mm 0.00 in0.0 mm
12:05 PM 50.1°F10.1°C 38.4°F3.6°C 64% 6.0 mph SE9.7 kmh SE 14.0 mph22.5 kmh 30.07 in1018.3 mb 0.00 in0.0 mm 0.00 in0.0 mm 0.00 in0.0 mm
12:10 PM 50.5°F10.3°C 38.8°F3.8°C 64% 9.0 mph SW14.5 kmh SW 12.0 mph19.3 kmh 30.07 in1018.3 mb 0.00 in0.0 mm 0.00 in0.0 mm 0.00 in0.0 mm
12:15 PM 50.8°F10.4°C 39.1°F3.9°C 64% 6.0 mph SE9.7 kmh SE 12.0 mph19.3 kmh 30.07 in1018.3 mb 0.00 in0.0 mm 0.00 in0.0 mm 0.00 in0.0 mm
12:20 PM 51.1°F10.6°C 39.0°F3.9°C 63% 8.0 mph SE12.9 kmh SE 12.0 mph19.3 kmh 30.08 in1018.6 mb 0.00 in0.0 mm 0.00 in0.0 mm 0.00 in0.0 mm
12:25 PM 50.8°F10.4°C 39.1°F3.9°C 64% 5.0 mph SSE8.0 kmh SSE 12.0 mph19.3 kmh 30.07 in1018.3 mb 0.00 in0.0 mm 0.00 in0.0 mm 0.00 in0.0 mm
12:30 PM 50.3°F10.2°C 38.2°F3.4°C 63% 6.0 mph E9.7 kmh E 11.0 mph17.7 kmh 30.07 in1018.3 mb 0.00 in0.0 mm 0.00 in0.0 mm 0.00 in0.0 mm
12:35 PM 50.6°F10.3°C 38.1°F3.4°C 62% 9.0 mph SE14.5 kmh SE 12.0 mph19.3 kmh 30.07 in1018.3 mb 0.00 in0.0 mm 0.00 in0.0 mm 0.00 in0.0 mm
12:40 PM 50.7°F10.4°C 39.0°F3.9°C 64% 6.0 mph SSE9.7 kmh SSE 8.0 mph12.9 kmh 30.07 in1018.3 mb 0.00 in0.0 mm 0.00 in0.0 mm 0.00 in0.0 mm
12:45 PM 51.2°F10.7°C 38.6°F3.7°C 62% 6.0 mph ESE9.7 kmh ESE 11.0 mph17.7 kmh 30.07 in1018.3 mb 0.00 in0.0 mm 0.00 in0.0 mm 0.00 in0.0 mm
12:50 PM 51.0°F10.6°C 38.0°F3.3°C 61% 7.0 mph SSE11.3 kmh SSE 15.0 mph24.1 kmh 30.07 in1018.3 mb 0.00 in0.0 mm 0.00 in0.0 mm 0.00 in0.0 mm
12:55 PM 51.0°F10.6°C 38.0°F3.3°C 61% 5.0 mph SE8.0 kmh SE 12.0 mph19.3 kmh 30.06 in1017.9 mb 0.00 in0.0 mm 0.00 in0.0 mm 0.00 in0.0 mm
01:00 PM 50.7°F10.4°C 38.6°F3.7°C 63% 7.0 mph SE11.3 kmh SE 13.0 mph20.9 kmh 30.06 in1017.9 mb 0.00 in0.0 mm 0.00 in0.0 mm 0.00 in0.0 mm
01:05 PM 50.9°F10.5°C 38.0°F3.3°C 61% 7.0 mph SE11.3 kmh SE 10.0 mph16.1 kmh 30.06 in1017.9 mb 0.00 in0.0 mm 0.00 in0.0 mm 0.00 in0.0 mm
01:10 PM 50.8°F10.4°C 37.9°F3.3°C 61% 9.0 mph SE14.5 kmh SE 14.0 mph22.5 kmh 30.06 in1017.9 mb 0.00 in0.0 mm 0.00 in0.0 mm 0.00 in0.0 mm
01:15 PM 50.8°F10.4°C 37.4°F3.0°C 60% 8.0 mph ESE12.9 kmh ESE 11.0 mph17.7 kmh 30.06 in1017.9 mb 0.00 in0.0 mm 0.00 in0.0 mm 0.00 in0.0 mm
01:25 PM 51.3°F10.7°C 38.7°F3.7°C 62% 6.0 mph SE9.7 kmh SE 10.0 mph16.1 kmh 30.05 in1017.6 mb 0.00 in0.0 mm 0.00 in0.0 mm 0.00 in0.0 mm
01:30 PM 52.1°F11.2°C 39.9°F4.4°C 63% 7.0 mph S11.3 kmh S 9.0 mph14.5 kmh 30.05 in1017.6 mb 0.00 in0.0 mm 0.00 in0.0 mm 0.00 in0.0 mm
01:35 PM 52.0°F11.1°C 39.0°F3.9°C 61% 7.0 mph SE11.3 kmh SE 11.0 mph17.7 kmh 30.04 in1017.3 mb 0.00 in0.0 mm 0.00 in0.0 mm 0.00 in0.0 mm
01:40 PM 51.7°F10.9°C 38.3°F3.5°C 60% 10.0 mph ESE16.1 kmh ESE 11.0 mph17.7 kmh 30.04 in1017.3 mb 0.00 in0.0 mm 0.00 in0.0 mm 0.00 in0.0 mm
01:45 PM 51.0°F10.6°C 38.9°F3.8°C 63% 4.0 mph SE6.4 kmh SE 15.0 mph24.1 kmh 30.04 in1017.3 mb 0.00 in0.0 mm 0.00 in0.0 mm 0.00 in0.0 mm
01:50 PM 50.9°F10.5°C 38.0°F3.3°C 61% 9.0 mph ESE14.5 kmh ESE 11.0 mph17.7 kmh 30.03 in1016.9 mb 0.00 in0.0 mm 0.00 in0.0 mm 0.00 in0.0 mm
01:55 PM 50.3°F10.2°C 37.8°F3.2°C 62% 5.0 mph S8.0 kmh S 15.0 mph24.1 kmh 30.03 in1016.9 mb 0.00 in0.0 mm 0.00 in0.0 mm 0.00 in0.0 mm
02:00 PM 50.4°F10.2°C 38.3°F3.5°C 63% 6.0 mph SE9.7 kmh SE 10.0 mph16.1 kmh 30.03 in1016.9 mb 0.00 in0.0 mm 0.00 in0.0 mm 0.00 in0.0 mm
02:05 PM 50.4°F10.2°C 37.9°F3.3°C 62% 5.0 mph E8.0 kmh E 13.0 mph20.9 kmh 30.03 in1016.9 mb 0.00 in0.0 mm 0.00 in0.0 mm 0.00 in0.0 mm
02:10 PM 50.6°F10.3°C 38.1°F3.4°C 62% 6.0 mph ESE9.7 kmh ESE 11.0 mph17.7 kmh 30.03 in1016.9 mb 0.00 in0.0 mm 0.00 in0.0 mm 0.00 in0.0 mm
02:15 PM 50.2°F10.1°C 37.7°F3.2°C 62% 7.0 mph ESE11.3 kmh ESE 10.0 mph16.1 kmh 30.03 in1016.9 mb 0.00 in0.0 mm 0.00 in0.0 mm 0.00 in0.0 mm
02:20 PM 50.4°F10.2°C 38.7°F3.7°C 64% 5.0 mph SSE8.0 kmh SSE 11.0 mph17.7 kmh 30.03 in1016.9 mb 0.00 in0.0 mm 0.00 in0.0 mm 0.00 in0.0 mm
02:25 PM 50.4°F10.2°C 38.3°F3.5°C 63% 7.0 mph E11.3 kmh E 14.0 mph22.5 kmh 30.02 in1016.6 mb 0.00 in0.0 mm 0.00 in0.0 mm 0.00 in0.0 mm
02:30 PM 50.5°F10.3°C 38.8°F3.8°C 64% 4.0 mph SSE6.4 kmh SSE 10.0 mph16.1 kmh 30.02 in1016.6 mb 0.00 in0.0 mm 0.00 in0.0 mm 0.00 in0.0 mm
02:35 PM 50.6°F10.3°C 38.5°F3.6°C 63% 8.0 mph SE12.9 kmh SE 12.0 mph19.3 kmh 30.02 in1016.6 mb 0.00 in0.0 mm 0.00 in0.0 mm 0.00 in0.0 mm
02:40 PM 50.5°F10.3°C 38.8°F3.8°C 64% 5.0 mph SE8.0 kmh SE 10.0 mph16.1 kmh 30.02 in1016.6 mb 0.00 in0.0 mm 0.00 in0.0 mm 0.00 in0.0 mm
02:45 PM 50.2°F10.1°C 38.1°F3.4°C 63% 9.0 mph ESE14.5 kmh ESE 13.0 mph20.9 kmh 30.03 in1016.9 mb 0.00 in0.0 mm 0.00 in0.0 mm 0.00 in0.0 mm
02:50 PM 50.1°F10.1°C 38.8°F3.8°C 65% 3.0 mph S4.8 kmh S 11.0 mph17.7 kmh 30.02 in1016.6 mb 0.00 in0.0 mm 0.00 in0.0 mm 0.00 in0.0 mm
02:55 PM 50.2°F10.1°C 38.1°F3.4°C 63% 5.0 mph ESE8.0 kmh ESE 11.0 mph17.7 kmh 30.02 in1016.6 mb 0.00 in0.0 mm 0.00 in0.0 mm 0.00 in0.0 mm
03:00 PM 50.1°F10.1°C 38.8°F3.8°C 65% 3.0 mph ESE4.8 kmh ESE 10.0 mph16.1 kmh 30.02 in1016.6 mb 0.00 in0.0 mm 0.00 in0.0 mm 0.00 in0.0 mm
03:05 PM 50.2°F10.1°C 38.9°F3.8°C 65% 6.0 mph ESE9.7 kmh ESE 11.0 mph17.7 kmh 30.02 in1016.6 mb 0.00 in0.0 mm 0.00 in0.0 mm 0.00 in0.0 mm
03:10 PM 50.0°F10.0°C 37.9°F3.3°C 63% 8.0 mph SE12.9 kmh SE 12.0 mph19.3 kmh 30.02 in1016.6 mb 0.00 in0.0 mm 0.00 in0.0 mm 0.00 in0.0 mm
03:15 PM 49.9°F9.9°C 38.2°F3.4°C 64% 8.0 mph SE12.9 kmh SE 13.0 mph20.9 kmh 30.02 in1016.6 mb 0.00 in0.0 mm 0.00 in0.0 mm 0.00 in0.0 mm
03:20 PM 50.0°F10.0°C 38.7°F3.7°C 65% 8.0 mph SE12.9 kmh SE 11.0 mph17.7 kmh 30.02 in1016.6 mb 0.00 in0.0 mm 0.00 in0.0 mm 0.00 in0.0 mm
03:25 PM 50.0°F10.0°C 38.3°F3.5°C 64% 5.0 mph SE8.0 kmh SE 12.0 mph19.3 kmh 30.01 in1016.3 mb 0.00 in0.0 mm 0.00 in0.0 mm 0.00 in0.0 mm
03:30 PM 50.2°F10.1°C 38.5°F3.6°C 64% 4.0 mph SE6.4 kmh SE 11.0 mph17.7 kmh 30.01 in1016.3 mb 0.00 in0.0 mm 0.00 in0.0 mm 0.00 in0.0 mm
03:35 PM 50.1°F10.1°C 37.6°F3.1°C 62% 4.0 mph ESE6.4 kmh ESE 13.0 mph20.9 kmh 30.01 in1016.3 mb 0.00 in0.0 mm 0.00 in0.0 mm 0.00 in0.0 mm
03:40 PM 50.1°F10.1°C 38.8°F3.8°C 65% 9.0 mph E14.5 kmh E 10.0 mph16.1 kmh 30.01 in1016.3 mb 0.00 in0.0 mm 0.00 in0.0 mm 0.00 in0.0 mm
03:45 PM 50.1°F10.1°C 38.8°F3.8°C 65% 5.0 mph ESE8.0 kmh ESE 11.0 mph17.7 kmh 30.01 in1016.3 mb 0.00 in0.0 mm 0.00 in0.0 mm 0.00 in0.0 mm
03:50 PM 50.3°F10.2°C 39.4°F4.1°C 66% 4.0 mph SE6.4 kmh SE 7.0 mph11.3 kmh 30.01 in1016.3 mb 0.00 in0.0 mm 0.00 in0.0 mm 0.00 in0.0 mm
03:55 PM 50.2°F10.1°C 38.9°F3.8°C 65% 5.0 mph SE8.0 kmh SE 9.0 mph14.5 kmh 30.01 in1016.3 mb 0.00 in0.0 mm 0.00 in0.0 mm 0.00 in0.0 mm
04:00 PM 50.1°F10.1°C 38.4°F3.6°C 64% 5.0 mph ESE8.0 kmh ESE 11.0 mph17.7 kmh 30.01 in1016.3 mb 0.00 in0.0 mm 0.00 in0.0 mm 0.00 in0.0 mm
04:05 PM 50.3°F10.2°C 39.0°F3.9°C 65% 9.0 mph SE14.5 kmh SE 9.0 mph14.5 kmh 30.01 in1016.3 mb 0.00 in0.0 mm 0.00 in0.0 mm 0.00 in0.0 mm
04:10 PM 50.4°F10.2°C 38.7°F3.7°C 64% 6.0 mph SSW9.7 kmh SSW 10.0 mph16.1 kmh 30.01 in1016.3 mb 0.00 in0.0 mm 0.00 in0.0 mm 0.00 in0.0 mm
04:15 PM 50.7°F10.4°C 39.0°F3.9°C 64% 5.0 mph SE8.0 kmh SE 9.0 mph14.5 kmh 30.01 in1016.3 mb 0.00 in0.0 mm 0.00 in0.0 mm 0.00 in0.0 mm
04:20 PM 50.7°F10.4°C 39.4°F4.1°C 65% 2.0 mph SSW3.2 kmh SSW 8.0 mph12.9 kmh 30.00 in1015.9 mb 0.00 in0.0 mm 0.00 in0.0 mm 0.00 in0.0 mm
04:25 PM 50.6°F10.3°C 38.9°F3.8°C 64% 3.0 mph S4.8 kmh S 8.0 mph12.9 kmh 30.00 in1015.9 mb 0.00 in0.0 mm 0.00 in0.0 mm 0.00 in0.0 mm
04:30 PM 50.4°F10.2°C 38.7°F3.7°C 64% 8.0 mph ESE12.9 kmh ESE 9.0 mph14.5 kmh 30.00 in1015.9 mb 0.00 in0.0 mm 0.00 in0.0 mm 0.00 in0.0 mm
04:35 PM 50.3°F10.2°C 39.4°F4.1°C 66% 7.0 mph S11.3 kmh S 7.0 mph11.3 kmh 30.00 in1015.9 mb 0.00 in0.0 mm 0.00 in0.0 mm 0.00 in0.0 mm
04:40 PM 50.3°F10.2°C 39.0°F3.9°C 65% 3.0 mph SE4.8 kmh SE 8.0 mph12.9 kmh 30.00 in1015.9 mb 0.00 in0.0 mm 0.00 in0.0 mm 0.00 in0.0 mm
04:45 PM 50.2°F10.1°C 38.9°F3.8°C 65% 7.0 mph SSW11.3 kmh SSW 8.0 mph12.9 kmh 30.00 in1015.9 mb 0.00 in0.0 mm 0.00 in0.0 mm 0.00 in0.0 mm
04:50 PM 50.1°F10.1°C 39.2°F4.0°C 66% 3.0 mph S4.8 kmh S 9.0 mph14.5 kmh 30.00 in1015.9 mb 0.00 in0.0 mm 0.00 in0.0 mm 0.00 in0.0 mm
04:55 PM 50.0°F10.0°C 38.3°F3.5°C 64% 3.0 mph SSE4.8 kmh SSE 11.0 mph17.7 kmh 30.00 in1015.9 mb 0.00 in0.0 mm 0.00 in0.0 mm 0.00 in0.0 mm
05:00 PM 50.0°F10.0°C 38.3°F3.5°C 64% 7.0 mph E11.3 kmh E 8.0 mph12.9 kmh 30.00 in1015.9 mb 0.00 in0.0 mm 0.00 in0.0 mm 0.00 in0.0 mm
05:05 PM 50.0°F10.0°C 38.7°F3.7°C 65% 4.0 mph E6.4 kmh E 8.0 mph12.9 kmh 30.00 in1015.9 mb 0.00 in0.0 mm 0.00 in0.0 mm 0.00 in0.0 mm
05:10 PM 50.0°F10.0°C 37.9°F3.3°C 63% 5.0 mph SSE8.0 kmh SSE 10.0 mph16.1 kmh 30.00 in1015.9 mb 0.00 in0.0 mm 0.00 in0.0 mm 0.00 in0.0 mm
05:15 PM 49.9°F9.9°C 37.8°F3.2°C 63% 3.0 mph SE4.8 kmh SE 7.0 mph11.3 kmh 29.99 in1015.6 mb 0.00 in0.0 mm 0.00 in0.0 mm 0.00 in0.0 mm
05:20 PM 49.8°F9.9°C 37.7°F3.2°C 63% 9.0 mph E14.5 kmh E 10.0 mph16.1 kmh 29.99 in1015.6 mb 0.00 in0.0 mm 0.00 in0.0 mm 0.00 in0.0 mm
05:25 PM 49.8°F9.9°C 37.7°F3.2°C 63% 5.0 mph SE8.0 kmh SE 9.0 mph14.5 kmh 29.99 in1015.6 mb 0.00 in0.0 mm 0.00 in0.0 mm 0.00 in0.0 mm
05:30 PM 49.8°F9.9°C 37.7°F3.2°C 63% 4.0 mph SE6.4 kmh SE 8.0 mph12.9 kmh 29.98 in1015.2 mb 0.00 in0.0 mm 0.00 in0.0 mm 0.00 in0.0 mm
05:35 PM 49.8°F9.9°C 37.7°F3.2°C 63% 5.0 mph SE8.0 kmh SE 7.0 mph11.3 kmh 29.98 in1015.2 mb 0.00 in0.0 mm 0.00 in0.0 mm 0.00 in0.0 mm
05:40 PM 49.7°F9.8°C 37.2°F2.9°C 62% 5.0 mph ESE8.0 kmh ESE 10.0 mph16.1 kmh 29.98 in1015.2 mb 0.00 in0.0 mm 0.00 in0.0 mm 0.00 in0.0 mm
05:45 PM 49.7°F9.8°C 37.6°F3.1°C 63% 2.0 mph ESE3.2 kmh ESE 7.0 mph11.3 kmh 29.98 in1015.2 mb 0.00 in0.0 mm 0.00 in0.0 mm 0.00 in0.0 mm
05:50 PM 49.6°F9.8°C 37.5°F3.1°C 63% 2.0 mph SE3.2 kmh SE 6.0 mph9.7 kmh 29.98 in1015.2 mb 0.00 in0.0 mm 0.00 in0.0 mm 0.00 in0.0 mm
05:55 PM 49.7°F9.8°C 38.4°F3.6°C 65% 2.0 mph SE3.2 kmh SE 4.0 mph6.4 kmh 29.97 in1014.9 mb 0.00 in0.0 mm 0.00 in0.0 mm 0.00 in0.0 mm
06:00 PM 49.6°F9.8°C 37.5°F3.1°C 63% 5.0 mph ESE8.0 kmh ESE 8.0 mph12.9 kmh 29.97 in1014.9 mb 0.00 in0.0 mm 0.00 in0.0 mm 0.00 in0.0 mm
06:05 PM 49.6°F9.8°C 37.9°F3.3°C 64% 1.0 mph E1.6 kmh E 6.0 mph9.7 kmh 29.97 in1014.9 mb 0.00 in0.0 mm 0.00 in0.0 mm 0.00 in0.0 mm
06:10 PM 49.5°F9.7°C 37.8°F3.2°C 64% 4.0 mph ESE6.4 kmh ESE 6.0 mph9.7 kmh 29.97 in1014.9 mb 0.00 in0.0 mm 0.00 in0.0 mm 0.00 in0.0 mm
06:15 PM 49.5°F9.7°C 37.8°F3.2°C 64% 5.0 mph SE8.0 kmh SE 5.0 mph8.0 kmh 29.97 in1014.9 mb 0.00 in0.0 mm 0.00 in0.0 mm 0.00 in0.0 mm
06:20 PM 49.5°F9.7°C 37.4°F3.0°C 63% 3.0 mph ESE4.8 kmh ESE 8.0 mph12.9 kmh 29.97 in1014.9 mb 0.00 in0.0 mm 0.00 in0.0 mm 0.00 in0.0 mm
06:25 PM 49.5°F9.7°C 37.8°F3.2°C 64% 5.0 mph ESE8.0 kmh ESE 6.0 mph9.7 kmh 29.97 in1014.9 mb 0.00 in0.0 mm 0.00 in0.0 mm 0.00 in0.0 mm
06:30 PM 49.4°F9.7°C 37.4°F3.0°C 63% 2.0 mph SE3.2 kmh SE 5.0 mph8.0 kmh 29.97 in1014.9 mb 0.00 in0.0 mm 0.00 in0.0 mm 0.00 in0.0 mm
06:35 PM 49.3°F9.6°C 38.1°F3.4°C 65% 4.0 mph ESE6.4 kmh ESE 5.0 mph8.0 kmh 29.97 in1014.9 mb 0.00 in0.0 mm 0.00 in0.0 mm 0.00 in0.0 mm
06:40 PM 49.2°F9.6°C 37.6°F3.1°C 64% 4.0 mph ESE6.4 kmh ESE 6.0 mph9.7 kmh 29.97 in1014.9 mb 0.00 in0.0 mm 0.00 in0.0 mm 0.00 in0.0 mm
06:45 PM 49.1°F9.5°C 37.1°F2.8°C 63% 7.0 mph ESE11.3 kmh ESE 8.0 mph12.9 kmh 29.97 in1014.9 mb 0.00 in0.0 mm 0.00 in0.0 mm 0.00 in0.0 mm
06:50 PM 49.1°F9.5°C 37.9°F3.3°C 65% 2.0 mph E3.2 kmh E 5.0 mph8.0 kmh 29.97 in1014.9 mb 0.00 in0.0 mm 0.00 in0.0 mm 0.00 in0.0 mm
06:55 PM 49.0°F9.4°C 37.8°F3.2°C 65% 1.0 mph E1.6 kmh E 5.0 mph8.0 kmh 29.97 in1014.9 mb 0.00 in0.0 mm 0.00 in0.0 mm 0.00 in0.0 mm
07:00 PM 48.9°F9.4°C 37.7°F3.2°C 65% 3.0 mph ESE4.8 kmh ESE 4.0 mph6.4 kmh 29.97 in1014.9 mb 0.00 in0.0 mm 0.00 in0.0 mm 0.00 in0.0 mm
07:05 PM 48.8°F9.3°C 37.6°F3.1°C 65% 3.0 mph ESE4.8 kmh ESE 5.0 mph8.0 kmh 29.97 in1014.9 mb 0.00 in0.0 mm 0.00 in0.0 mm 0.00 in0.0 mm
07:10 PM 48.8°F9.3°C 37.6°F3.1°C 65% 2.0 mph ESE3.2 kmh ESE 6.0 mph9.7 kmh 29.97 in1014.9 mb 0.00 in0.0 mm 0.00 in0.0 mm 0.00 in0.0 mm
07:15 PM 48.7°F9.3°C 37.9°F3.3°C 66% 3.0 mph SE4.8 kmh SE 3.0 mph4.8 kmh 29.97 in1014.9 mb 0.00 in0.0 mm 0.00 in0.0 mm 0.00 in0.0 mm
07:20 PM 48.6°F9.2°C 38.2°F3.4°C 67% 3.0 mph ESE4.8 kmh ESE 4.0 mph6.4 kmh 29.97 in1014.9 mb 0.00 in0.0 mm 0.00 in0.0 mm 0.00 in0.0 mm
07:25 PM 48.6°F9.2°C 37.8°F3.2°C 66% 3.0 mph ESE4.8 kmh ESE 4.0 mph6.4 kmh 29.98 in1015.2 mb 0.00 in0.0 mm 0.00 in0.0 mm 0.00 in0.0 mm
07:30 PM 48.6°F9.2°C 37.8°F3.2°C 66% Calm Calm 5.0 mph8.0 kmh 29.98 in1015.2 mb 0.00 in0.0 mm 0.00 in0.0 mm 0.00 in0.0 mm
07:35 PM 48.5°F9.2°C 38.1°F3.4°C 67% Calm Calm -- 29.98 in1015.2 mb 0.00 in0.0 mm 0.00 in0.0 mm 0.00 in0.0 mm
07:40 PM 48.4°F9.1°C 38.0°F3.3°C 67% 2.0 mph SE3.2 kmh SE 3.0 mph4.8 kmh 29.98 in1015.2 mb 0.00 in0.0 mm 0.00 in0.0 mm 0.00 in0.0 mm
07:45 PM 48.5°F9.2°C 38.1°F3.4°C 67% 2.0 mph ESE3.2 kmh ESE 5.0 mph8.0 kmh 29.98 in1015.2 mb 0.00 in0.0 mm 0.00 in0.0 mm 0.00 in0.0 mm
07:50 PM 48.5°F9.2°C 38.1°F3.4°C 67% 3.0 mph SSE4.8 kmh SSE 3.0 mph4.8 kmh 29.98 in1015.2 mb 0.00 in0.0 mm 0.00 in0.0 mm 0.00 in0.0 mm
07:55 PM 48.5°F9.2°C 38.1°F3.4°C 67% Calm Calm 2.0 mph3.2 kmh 29.97 in1014.9 mb 0.00 in0.0 mm 0.00 in0.0 mm 0.00 in0.0 mm
08:00 PM 48.4°F9.1°C 37.6°F3.1°C 66% 2.0 mph E3.2 kmh E 2.0 mph3.2 kmh 29.98 in1015.2 mb 0.00 in0.0 mm 0.00 in0.0 mm 0.00 in0.0 mm
08:05 PM 48.5°F9.2°C 37.3°F2.9°C 65% 3.0 mph SE4.8 kmh SE 6.0 mph9.7 kmh 29.98 in1015.2 mb 0.00 in0.0 mm 0.00 in0.0 mm 0.00 in0.0 mm
08:10 PM 48.4°F9.1°C 38.0°F3.3°C 67% 2.0 mph SE3.2 kmh SE 5.0 mph8.0 kmh 29.98 in1015.2 mb 0.00 in0.0 mm 0.00 in0.0 mm 0.00 in0.0 mm
08:15 PM 48.2°F9.0°C 37.8°F3.2°C 67% Calm Calm 3.0 mph4.8 kmh 29.98 in1015.2 mb 0.00 in0.0 mm 0.00 in0.0 mm 0.00 in0.0 mm
08:20 PM 48.1°F8.9°C 37.7°F3.2°C 67% 3.0 mph SE4.8 kmh SE 3.0 mph4.8 kmh 29.98 in1015.2 mb 0.00 in0.0 mm 0.00 in0.0 mm 0.00 in0.0 mm
08:25 PM 48.1°F8.9°C 36.9°F2.7°C 65% 1.0 mph ESE1.6 kmh ESE 3.0 mph4.8 kmh 29.98 in1015.2 mb 0.00 in0.0 mm 0.00 in0.0 mm 0.00 in0.0 mm
08:30 PM 48.1°F8.9°C 37.3°F2.9°C 66% 3.0 mph SSE4.8 kmh SSE 5.0 mph8.0 kmh 29.99 in1015.6 mb 0.00 in0.0 mm 0.00 in0.0 mm 0.00 in0.0 mm
08:35 PM 48.0°F8.9°C 38.0°F3.3°C 68% 2.0 mph SE3.2 kmh SE 3.0 mph4.8 kmh 29.99 in1015.6 mb 0.00 in0.0 mm 0.00 in0.0 mm 0.00 in0.0 mm
08:40 PM 47.9°F8.8°C 38.2°F3.4°C 69% Calm Calm 3.0 mph4.8 kmh 29.99 in1015.6 mb 0.00 in0.0 mm 0.00 in0.0 mm 0.00 in0.0 mm
08:45 PM 47.8°F8.8°C 37.4°F3.0°C 67% 6.0 mph ESE9.7 kmh ESE 12.0 mph19.3 kmh 30.00 in1015.9 mb 0.00 in0.0 mm 0.00 in0.0 mm 0.00 in0.0 mm
08:50 PM 47.7°F8.7°C 36.9°F2.7°C 66% 1.0 mph SE1.6 kmh SE 7.0 mph11.3 kmh 30.00 in1015.9 mb 0.00 in0.0 mm 0.00 in0.0 mm 0.00 in0.0 mm
08:55 PM 47.4°F8.6°C 37.0°F2.8°C 67% 4.0 mph SSE6.4 kmh SSE 11.0 mph17.7 kmh 30.01 in1016.3 mb 0.00 in0.0 mm 0.00 in0.0 mm 0.00 in0.0 mm
09:00 PM 46.5°F8.1°C 39.0°F3.9°C 75% 7.0 mph ESE11.3 kmh ESE 8.0 mph12.9 kmh 30.01 in1016.3 mb 0.00 in0.0 mm 0.00 in0.0 mm 0.00 in0.0 mm
09:05 PM 45.4°F7.4°C 39.3°F4.1°C 79% 4.0 mph SE6.4 kmh SE 9.0 mph14.5 kmh 30.01 in1016.3 mb 0.01 in0.3 mm 0.12 in3.0 mm 0.01 in0.3 mm
09:10 PM 44.7°F7.1°C 39.9°F4.4°C 83% 4.0 mph ESE6.4 kmh ESE 6.0 mph9.7 kmh 30.00 in1015.9 mb 0.01 in0.3 mm 0.00 in0.0 mm 0.01 in0.3 mm
09:15 PM 44.3°F6.8°C 39.8°F4.3°C 84% 5.0 mph ESE8.0 kmh ESE 6.0 mph9.7 kmh 30.00 in1015.9 mb 0.01 in0.3 mm 0.00 in0.0 mm 0.01 in0.3 mm
09:20 PM 44.0°F6.7°C 39.8°F4.3°C 85% 2.0 mph ESE3.2 kmh ESE 6.0 mph9.7 kmh 30.01 in1016.3 mb 0.02 in0.5 mm 0.12 in3.0 mm 0.02 in0.5 mm
09:25 PM 43.9°F6.6°C 40.3°F4.6°C 87% 1.0 mph E1.6 kmh E 3.0 mph4.8 kmh 30.01 in1016.3 mb 0.03 in0.8 mm 0.12 in3.0 mm 0.03 in0.8 mm
09:30 PM 43.6°F6.4°C 40.3°F4.6°C 88% 2.0 mph S3.2 kmh S 2.0 mph3.2 kmh 30.01 in1016.3 mb 0.03 in0.8 mm 0.00 in0.0 mm 0.03 in0.8 mm
09:35 PM 43.6°F6.4°C 40.6°F4.8°C 89% 2.0 mph SE3.2 kmh SE 3.0 mph4.8 kmh 30.01 in1016.3 mb 0.03 in0.8 mm 0.00 in0.0 mm 0.03 in0.8 mm
09:40 PM 43.6°F6.4°C 40.6°F4.8°C 89% 1.0 mph SSE1.6 kmh SSE 3.0 mph4.8 kmh 30.01 in1016.3 mb 0.03 in0.8 mm 0.00 in0.0 mm 0.03 in0.8 mm
09:45 PM 43.5°F6.4°C 40.5°F4.7°C 89% 4.0 mph ESE6.4 kmh ESE 5.0 mph8.0 kmh 30.01 in1016.3 mb 0.04 in1.0 mm 0.12 in3.0 mm 0.04 in1.0 mm
09:50 PM 43.3°F6.3°C 40.3°F4.6°C 89% 5.0 mph ESE8.0 kmh ESE 6.0 mph9.7 kmh 30.01 in1016.3 mb 0.04 in1.0 mm 0.00 in0.0 mm 0.04 in1.0 mm
09:55 PM 43.2°F6.2°C 40.5°F4.7°C 90% 2.0 mph SE3.2 kmh SE 4.0 mph6.4 kmh 30.01 in1016.3 mb 0.04 in1.0 mm 0.00 in0.0 mm 0.04 in1.0 mm
10:00 PM 43.2°F6.2°C 40.5°F4.7°C 90% 4.0 mph ESE6.4 kmh ESE 7.0 mph11.3 kmh 30.01 in1016.3 mb 0.04 in1.0 mm 0.00 in0.0 mm 0.04 in1.0 mm
10:05 PM 43.1°F6.2°C 40.4°F4.7°C 90% 2.0 mph E3.2 kmh E 6.0 mph9.7 kmh 30.01 in1016.3 mb 0.04 in1.0 mm 0.00 in0.0 mm 0.04 in1.0 mm
10:10 PM 43.1°F6.2°C 40.4°F4.7°C 90% 4.0 mph E6.4 kmh E 6.0 mph9.7 kmh 30.02 in1016.6 mb 0.04 in1.0 mm 0.00 in0.0 mm 0.04 in1.0 mm
10:15 PM 43.0°F6.1°C 40.3°F4.6°C 90% 4.0 mph ESE6.4 kmh ESE 6.0 mph9.7 kmh 30.01 in1016.3 mb 0.05 in1.3 mm 0.12 in3.0 mm 0.05 in1.3 mm
10:20 PM 42.9°F6.1°C 40.2°F4.6°C 90% 5.0 mph ESE8.0 kmh ESE 6.0 mph9.7 kmh 30.01 in1016.3 mb 0.05 in1.3 mm 0.00 in0.0 mm 0.05 in1.3 mm
10:25 PM 42.8°F6.0°C 39.5°F4.2°C 88% 5.0 mph SE8.0 kmh SE 9.0 mph14.5 kmh 30.01 in1016.3 mb 0.05 in1.3 mm 0.00 in0.0 mm 0.05 in1.3 mm
10:30 PM 42.8°F6.0°C 39.8°F4.3°C 89% 8.0 mph SE12.9 kmh SE 11.0 mph17.7 kmh 30.01 in1016.3 mb 0.04 in1.0 mm 0.00 in0.0 mm 0.05 in1.3 mm
10:35 PM 42.7°F5.9°C 39.7°F4.3°C 89% 3.0 mph SE4.8 kmh SE 9.0 mph14.5 kmh 30.01 in1016.3 mb 0.04 in1.0 mm 0.00 in0.0 mm 0.05 in1.3 mm
10:40 PM 42.7°F5.9°C 39.4°F4.1°C 88% 6.0 mph SE9.7 kmh SE 11.0 mph17.7 kmh 30.02 in1016.6 mb 0.04 in1.0 mm 0.00 in0.0 mm 0.05 in1.3 mm
10:45 PM 42.5°F5.8°C 39.2°F4.0°C 88% 5.0 mph SE8.0 kmh SE 9.0 mph14.5 kmh 30.01 in1016.3 mb 0.04 in1.0 mm 0.00 in0.0 mm 0.05 in1.3 mm
10:50 PM 42.4°F5.8°C 39.1°F3.9°C 88% 5.0 mph E8.0 kmh E 10.0 mph16.1 kmh 30.01 in1016.3 mb 0.03 in0.8 mm 0.00 in0.0 mm 0.05 in1.3 mm
10:55 PM 42.4°F5.8°C 39.1°F3.9°C 88% 4.0 mph E6.4 kmh E 9.0 mph14.5 kmh 30.01 in1016.3 mb 0.04 in1.0 mm 0.12 in3.0 mm 0.06 in1.5 mm
11:00 PM 42.3°F5.7°C 39.3°F4.1°C 89% 6.0 mph E9.7 kmh E 10.0 mph16.1 kmh 30.01 in1016.3 mb 0.04 in1.0 mm 0.00 in0.0 mm 0.06 in1.5 mm
11:05 PM 42.3°F5.7°C 39.3°F4.1°C 89% 6.0 mph E9.7 kmh E 11.0 mph17.7 kmh 30.01 in1016.3 mb 0.04 in1.0 mm 0.00 in0.0 mm 0.06 in1.5 mm
11:10 PM 42.2°F5.7°C 39.5°F4.2°C 90% 4.0 mph E6.4 kmh E 10.0 mph16.1 kmh 30.01 in1016.3 mb 0.05 in1.3 mm 0.12 in3.0 mm 0.07 in1.8 mm
11:15 PM 42.1°F5.6°C 39.4°F4.1°C 90% 2.0 mph SE3.2 kmh SE 7.0 mph11.3 kmh 30.01 in1016.3 mb 0.04 in1.0 mm 0.00 in0.0 mm 0.07 in1.8 mm
11:20 PM 42.0°F5.6°C 39.3°F4.1°C 90% 6.0 mph SE9.7 kmh SE 6.0 mph9.7 kmh 30.01 in1016.3 mb 0.03 in0.8 mm 0.00 in0.0 mm 0.07 in1.8 mm
11:25 PM 42.1°F5.6°C 39.4°F4.1°C 90% Calm Calm 6.0 mph9.7 kmh 30.01 in1016.3 mb 0.03 in0.8 mm 0.00 in0.0 mm 0.07 in1.8 mm
11:30 PM 42.0°F5.6°C 39.3°F4.1°C 90% 1.0 mph SE1.6 kmh SE 2.0 mph3.2 kmh 30.01 in1016.3 mb 0.02 in0.5 mm 0.00 in0.0 mm 0.07 in1.8 mm
11:35 PM 42.0°F5.6°C 39.6°F4.2°C 91% Calm Calm 1.0 mph1.6 kmh 30.01 in1016.3 mb 0.02 in0.5 mm 0.00 in0.0 mm 0.07 in1.8 mm
11:40 PM 42.0°F5.6°C 39.6°F4.2°C 91% 2.0 mph SE3.2 kmh SE 4.0 mph6.4 kmh 30.01 in1016.3 mb 0.02 in0.5 mm 0.00 in0.0 mm 0.07 in1.8 mm
11:45 PM 42.1°F5.6°C 39.7°F4.3°C 91% 2.0 mph E3.2 kmh E 4.0 mph6.4 kmh 30.01 in1016.3 mb 0.02 in0.5 mm 0.00 in0.0 mm 0.07 in1.8 mm
11:50 PM 42.2°F5.7°C 39.8°F4.3°C 91% 2.0 mph E3.2 kmh E 4.0 mph6.4 kmh 30.01 in1016.3 mb 0.02 in0.5 mm 0.00 in0.0 mm 0.07 in1.8 mm
11:55 PM 42.5°F5.8°C 39.8°F4.3°C 90% 1.0 mph E1.6 kmh E 5.0 mph8.0 kmh 30.01 in1016.3 mb 0.02 in0.5 mm 0.00 in0.0 mm 0.07 in1.8 mm